Time;durP1;ratioP1;P1;durP2;ratioP2;P2;SDS_P1;SDS_P2;PMS_P1;PMS_P2;Temp;Humidity;BMP_temperature;BMP_pressure;BME280_temperature;BME280_humidity;BME280_pressure;Samples;Min_cycle;Max_cycle;Signal;HPM_P1;HPM_P2
2022/09/06 00:02:13;;;;;;;5.55;4.28;;;21.00;91.70;;;;;;5105469;27;20039;-86
2022/09/06 00:04:39;;;;;;;7.80;4.50;;;21.00;91.80;;;;;;5085941;27;20046;-86
2022/09/06 00:07:08;;;;;;;6.97;4.47;;;21.00;91.90;;;;;;5096291;27;20079;-83
2022/09/06 00:09:33;;;;;;;10.95;5.32;;;20.90;92.00;;;;;;5080473;27;20524;-84
2022/09/06 00:11:59;;;;;;;5.40;4.65;;;20.90;92.60;;;;;;5120427;27;20051;-84
2022/09/06 00:14:25;;;;;;;7.57;4.65;;;20.80;92.60;;;;;;5093990;27;20042;-84
2022/09/06 00:16:50;;;;;;;6.28;4.30;;;20.80;92.80;;;;;;5089011;27;20034;-84
2022/09/06 00:19:16;;;;;;;6.75;4.47;;;20.70;93.10;;;;;;5091721;27;20115;-84
2022/09/06 00:21:42;;;;;;;6.57;4.40;;;20.60;93.40;;;;;;5069709;27;20134;-84
2022/09/06 00:24:08;;;;;;;8.35;4.75;;;20.60;93.60;;;;;;5087485;27;20064;-84
2022/09/06 00:26:34;;;;;;;5.65;4.75;;;20.50;93.90;;;;;;5072489;27;20077;-86
2022/09/06 00:29:01;;;;;;;5.43;4.63;;;20.40;94.30;;;;;;5078950;27;20626;-84
2022/09/06 00:31:27;;;;;;;5.63;4.85;;;20.20;94.70;;;;;;5077170;27;20042;-84
2022/09/06 00:33:53;;;;;;;6.78;5.32;;;20.20;95.30;;;;;;5090049;27;20516;-84
2022/09/06 00:36:20;;;;;;;8.52;5.40;;;20.10;95.50;;;;;;5113735;27;20047;-85
2022/09/06 00:38:46;;;;;;;7.75;5.30;;;20.10;95.80;;;;;;5115825;27;20528;-84
2022/09/06 00:41:15;;;;;;;8.00;5.65;;;20.00;96.10;;;;;;5115930;27;20068;-85
2022/09/06 00:43:42;;;;;;;6.72;5.15;;;19.90;96.20;;;;;;5119871;27;20070;-85
2022/09/06 00:46:14;;;;;;;7.15;4.72;;;19.90;96.10;;;;;;5099868;27;20139;-83
2022/09/06 00:48:41;;;;;;;6.45;5.40;;;19.90;96.30;;;;;;5103121;27;20644;-84
2022/09/06 00:51:09;;;;;;;8.63;5.15;;;19.90;96.80;;;;;;5094274;27;20091;-84
2022/09/06 00:53:38;;;;;;;42.58;7.20;;;19.80;97.00;;;;;;5099971;27;20050;-84
2022/09/06 00:56:04;;;;;;;32.38;6.93;;;19.80;97.00;;;;;;5112409;27;20034;-84
2022/09/06 00:58:30;;;;;;;13.50;6.03;;;19.70;97.40;;;;;;5066784;27;20046;-84
2022/09/06 01:00:56;;;;;;;15.23;6.22;;;19.60;97.90;;;;;;5070591;27;20046;-84
2022/09/06 01:03:24;;;;;;;13.95;5.60;;;19.70;98.30;;;;;;5103079;27;20041;-84
2022/09/06 01:06:12;;;;;;;6.85;5.70;;;19.70;98.40;;;;;;5093000;27;20055;-84
2022/09/06 01:08:56;;;;;;;7.05;5.13;;;19.70;98.60;;;;;;5109198;27;20131;-84
2022/09/06 01:11:43;;;;;;;6.53;5.88;;;19.50;98.80;;;;;;5090176;27;20052;-84
2022/09/06 01:14:33;;;;;;;6.93;6.15;;;19.40;99.40;;;;;;5118748;27;20083;-84
2022/09/06 01:17:29;;;;;;;10.02;5.40;;;19.30;99.80;;;;;;5095534;27;20114;-84
2022/09/06 01:20:08;;;;;;;6.93;5.55;;;19.30;99.90;;;;;;5097896;27;20066;-84
2022/09/06 01:22:49;;;;;;;8.40;5.47;;;19.20;99.90;;;;;;5105011;27;20058;-84
2022/09/06 01:25:28;;;;;;;6.45;5.20;;;19.20;99.90;;;;;;5119566;27;20497;-85
2022/09/06 01:28:04;;;;;;;6.50;5.07;;;19.20;99.90;;;;;;5095077;27;20039;-84
2022/09/06 01:30:33;;;;;;;6.78;5.47;;;19.10;99.90;;;;;;5112229;27;20066;-83
2022/09/06 01:33:29;;;;;;;5.85;5.35;;;18.90;99.90;;;;;;5135096;27;20031;-84
2022/09/06 01:36:01;;;;;;;6.45;5.28;;;18.90;99.90;;;;;;5108624;27;20122;-84
2022/09/06 01:38:27;;;;;;;6.22;5.63;;;18.90;99.90;;;;;;5101555;27;20050;-84
2022/09/06 01:40:53;;;;;;;6.07;5.28;;;18.90;99.90;;;;;;5100929;27;21068;-84
2022/09/06 01:43:33;;;;;;;7.25;5.18;;;18.80;99.90;;;;;;5081606;27;20086;-84
2022/09/06 01:46:34;;;;;;;7.60;6.20;;;18.80;99.90;;;;;;5093078;27;20055;-84
2022/09/06 01:49:38;;;;;;;7.10;5.47;;;18.80;99.90;;;;;;5097932;27;20154;-83
2022/09/06 01:52:16;;;;;;;6.43;5.72;;;18.80;99.90;;;;;;5070310;27;20043;-84
2022/09/06 01:55:07;;;;;;;6.72;5.88;;;18.90;99.90;;;;;;5101629;27;20042;-84
2022/09/06 01:57:48;;;;;;;10.77;5.88;;;18.90;99.90;;;;;;5093352;27;20134;-84
2022/09/06 02:00:16;;;;;;;8.45;6.22;;;18.90;99.90;;;;;;5095143;27;20035;-84
2022/09/06 02:03:07;;;;;;;10.15;5.82;;;18.90;99.90;;;;;;5113561;27;20138;-84
2022/09/06 02:05:53;;;;;;;8.90;6.28;;;18.90;99.90;;;;;;5100096;27;20047;-83
2022/09/06 02:08:45;;;;;;;7.85;6.00;;;18.90;99.90;;;;;;5104873;27;20038;-83
2022/09/06 02:11:14;;;;;;;7.53;5.60;;;18.90;99.90;;;;;;5111371;27;20047;-84
2022/09/06 02:13:53;;;;;;;6.60;5.65;;;18.90;99.90;;;;;;5125285;27;20051;-83
2022/09/06 02:16:23;;;;;;;6.68;5.88;;;19.00;99.90;;;;;;5101292;28;20039;-84
2022/09/06 02:18:58;;;;;;;6.93;5.70;;;19.00;99.90;;;;;;5112075;27;20046;-84
2022/09/06 02:21:30;;;;;;;7.30;5.63;;;19.00;99.90;;;;;;5103522;28;20043;-84
2022/09/06 02:24:00;;;;;;;7.43;5.88;;;19.10;99.90;;;;;;5119139;27;20047;-84
2022/09/06 02:26:30;;;;;;;7.88;6.03;;;19.10;99.90;;;;;;5109854;27;20547;-84
2022/09/06 02:28:57;;;;;;;9.02;6.05;;;19.10;99.90;;;;;;5114378;27;20682;-84
2022/09/06 02:31:32;;;;;;;6.70;6.10;;;19.10;99.90;;;;;;5107419;27;20138;-84
2022/09/06 02:33:59;;;;;;;7.28;5.63;;;19.10;99.90;;;;;;5117674;27;20039;-84
2022/09/06 02:36:25;;;;;;;7.85;6.15;;;19.10;99.90;;;;;;5088127;27;20049;-84
2022/09/06 02:38:53;;;;;;;7.43;5.90;;;19.10;99.90;;;;;;5106534;27;20042;-84
2022/09/06 02:41:21;;;;;;;8.45;6.10;;;19.00;99.90;;;;;;5102280;27;20091;-84
2022/09/06 02:43:47;;;;;;;7.32;5.97;;;18.90;99.90;;;;;;5097273;27;20563;-83
2022/09/06 02:46:14;;;;;;;8.45;5.88;;;18.80;99.90;;;;;;5116313;27;20039;-84
2022/09/06 02:48:40;;;;;;;6.60;5.95;;;18.80;99.90;;;;;;5090110;27;20054;-83
2022/09/06 02:51:09;;;;;;;7.50;6.30;;;18.70;99.90;;;;;;5084433;27;20039;-84
2022/09/06 02:53:38;;;;;;;7.18;6.20;;;18.70;99.90;;;;;;5121548;27;20053;-84
2022/09/06 02:56:04;;;;;;;9.20;6.68;;;18.70;99.90;;;;;;5089802;27;20047;-84
2022/09/06 02:58:30;;;;;;;7.35;6.18;;;18.70;99.90;;;;;;5104743;28;20092;-84
2022/09/06 03:00:56;;;;;;;6.72;6.03;;;18.80;99.90;;;;;;5080652;27;20682;-85
2022/09/06 03:03:22;;;;;;;7.13;6.43;;;18.70;99.90;;;;;;5077155;27;20042;-84
2022/09/06 03:05:50;;;;;;;6.57;5.80;;;18.80;99.90;;;;;;5092354;27;20045;-77
2022/09/06 03:08:17;;;;;;;7.65;6.88;;;18.80;99.90;;;;;;5117205;27;20117;-77
2022/09/06 03:10:50;;;;;;;9.98;6.53;;;18.80;99.90;;;;;;5112912;27;20042;-77
2022/09/06 03:13:16;;;;;;;8.02;6.35;;;18.80;99.90;;;;;;5110999;27;20110;-77
2022/09/06 03:15:42;;;;;;;7.55;6.43;;;18.80;99.90;;;;;;5092603;27;20378;-77
2022/09/06 03:18:08;;;;;;;9.02;7.00;;;18.80;99.90;;;;;;5114591;27;20058;-78
2022/09/06 03:20:34;;;;;;;8.02;6.72;;;18.90;99.90;;;;;;5111223;27;20656;-77
2022/09/06 03:23:00;;;;;;;7.50;6.50;;;18.90;99.90;;;;;;5113472;27;20054;-78
2022/09/06 03:25:25;;;;;;;7.22;6.53;;;18.90;99.90;;;;;;5111578;27;20058;-86
2022/09/06 03:27:51;;;;;;;7.50;6.68;;;18.90;99.90;;;;;;5109397;27;20050;-86
2022/09/06 03:30:17;;;;;;;7.90;6.68;;;18.90;99.90;;;;;;5107961;27;20091;-85
2022/09/06 03:32:44;;;;;;;7.55;6.13;;;18.90;99.90;;;;;;5102072;27;20493;-85
2022/09/06 03:35:10;;;;;;;7.53;6.72;;;18.90;99.90;;;;;;5106949;27;20054;-85
2022/09/06 03:37:36;;;;;;;8.68;6.38;;;18.90;99.90;;;;;;5112800;27;20042;-85
2022/09/06 03:40:09;;;;;;;7.75;6.95;;;19.00;99.90;;;;;;5110386;27;20027;-86
2022/09/06 03:42:34;;;;;;;7.63;6.28;;;19.00;99.90;;;;;;5117916;27;20134;-85
2022/09/06 03:45:00;;;;;;;6.65;6.05;;;19.00;99.90;;;;;;5094367;27;20125;-86
2022/09/06 03:47:26;;;;;;;7.55;6.50;;;19.00;99.90;;;;;;5072552;27;20143;-85
2022/09/06 03:49:52;;;;;;;8.50;6.28;;;19.00;99.90;;;;;;5096389;27;20047;-77
2022/09/06 03:52:18;;;;;;;8.05;7.25;;;19.00;99.90;;;;;;5114046;27;20051;-84
2022/09/06 03:54:44;;;;;;;8.25;6.53;;;19.00;99.90;;;;;;5088103;27;20054;-86
2022/09/06 03:57:09;;;;;;;7.22;6.25;;;19.00;99.90;;;;;;5123036;27;20471;-85
2022/09/06 03:59:36;;;;;;;7.40;6.70;;;19.00;99.90;;;;;;5095092;27;20065;-86
2022/09/06 04:02:02;;;;;;;8.55;7.07;;;19.00;99.90;;;;;;5106315;27;20053;-78
2022/09/06 04:04:31;;;;;;;7.63;6.55;;;19.00;99.90;;;;;;5105107;27;20042;-85
2022/09/06 04:06:59;;;;;;;7.93;7.10;;;18.90;99.90;;;;;;5089783;27;20505;-85
2022/09/06 04:09:26;;;;;;;7.60;6.80;;;19.00;99.90;;;;;;5120633;27;20114;-84
2022/09/06 04:11:52;;;;;;;8.13;7.32;;;18.90;99.90;;;;;;5106439;27;20051;-77
2022/09/06 04:14:18;;;;;;;7.88;6.78;;;18.90;99.90;;;;;;5104479;27;20489;-77
2022/09/06 04:16:43;;;;;;;10.02;7.60;;;18.90;99.90;;;;;;5116353;27;20035;-77
2022/09/06 04:19:09;;;;;;;9.38;7.45;;;18.90;99.90;;;;;;5097731;27;20462;-77
2022/09/06 04:21:37;;;;;;;7.93;7.22;;;18.90;99.90;;;;;;5104721;27;20086;-78
2022/09/06 04:24:03;;;;;;;9.07;7.70;;;18.90;99.90;;;;;;5124636;27;20038;-78
2022/09/06 04:26:29;;;;;;;9.10;7.38;;;18.90;99.90;;;;;;5081824;27;20042;-84
2022/09/06 04:28:55;;;;;;;9.25;8.20;;;18.90;99.90;;;;;;5110883;27;20397;-85
2022/09/06 04:31:21;;;;;;;9.40;8.52;;;18.80;99.90;;;;;;5109050;27;20034;-85
2022/09/06 04:33:46;;;;;;;8.82;7.90;;;18.80;99.90;;;;;;5100922;27;21196;-85
2022/09/06 04:36:12;;;;;;;10.88;8.07;;;18.80;99.90;;;;;;5094419;27;20410;-85
2022/09/06 04:38:40;;;;;;;11.60;9.18;;;18.70;99.90;;;;;;5102089;27;20122;-78
2022/09/06 04:41:11;;;;;;;9.70;8.80;;;18.70;99.90;;;;;;5124933;27;20616;-78
2022/09/06 04:43:37;;;;;;;11.60;10.40;;;18.70;99.90;;;;;;5104666;27;20130;-87
2022/09/06 04:46:29;;;;;;;11.25;10.25;;;18.70;99.90;;;;;;5084146;27;20170;-87
2022/09/06 04:48:56;;;;;;;11.95;10.82;;;18.60;99.90;;;;;;5104353;27;20065;-87
2022/09/06 04:51:23;;;;;;;11.30;10.20;;;18.60;99.90;;;;;;5097577;27;20386;-87
2022/09/06 04:53:50;;;;;;;12.27;11.13;;;18.50;99.90;;;;;;5122497;27;20042;-87
2022/09/06 04:56:19;;;;;;;9.88;9.05;;;18.50;99.90;;;;;;5106499;27;20031;-78
2022/09/06 04:58:45;;;;;;;11.43;10.15;;;18.50;99.90;;;;;;5117591;27;20046;-77
2022/09/06 05:01:12;;;;;;;11.18;10.18;;;18.40;99.90;;;;;;5109370;27;20521;-78
2022/09/06 05:03:38;;;;;;;11.27;10.18;;;18.40;99.90;;;;;;5098747;27;20440;-77
2022/09/06 05:06:19;;;;;;;11.25;10.23;;;18.40;99.90;;;;;;5083051;27;20091;-78
2022/09/06 05:08:46;;;;;;;11.82;10.63;;;18.30;99.90;;;;;;5119693;27;20061;-78
2022/09/06 05:11:12;;;;;;;11.90;10.98;;;18.30;99.90;;;;;;5108715;27;20035;-78
2022/09/06 05:13:38;;;;;;;11.43;10.43;;;18.30;99.90;;;;;;5101201;27;20049;-78
2022/09/06 05:16:06;;;;;;;12.18;11.05;;;18.30;99.90;;;;;;5109759;27;20569;-78
2022/09/06 05:18:33;;;;;;;13.38;12.07;;;18.30;99.90;;;;;;5109840;27;20051;-78
2022/09/06 05:20:59;;;;;;;15.65;14.43;;;18.20;99.90;;;;;;5085815;27;20034;-78
2022/09/06 05:23:26;;;;;;;14.25;12.88;;;18.20;99.90;;;;;;5096554;27;20051;-78
2022/09/06 05:25:52;;;;;;;13.30;12.02;;;18.20;99.90;;;;;;5095217;27;20118;-76
2022/09/06 05:28:19;;;;;;;13.48;12.07;;;18.20;99.90;;;;;;5083862;27;20039;-77
2022/09/06 05:30:45;;;;;;;13.15;11.77;;;18.10;99.90;;;;;;5079192;27;20039;-78
2022/09/06 05:33:12;;;;;;;16.92;15.45;;;18.10;99.90;;;;;;5115897;27;20050;-78
2022/09/06 05:35:39;;;;;;;12.77;11.57;;;18.10;99.90;;;;;;5078848;27;20059;-78
2022/09/06 05:38:04;;;;;;;12.82;11.63;;;18.10;99.90;;;;;;5090913;27;20046;-79
2022/09/06 05:40:31;;;;;;;14.55;13.23;;;18.00;99.90;;;;;;5099776;27;20043;-78
2022/09/06 05:42:57;;;;;;;13.57;12.43;;;18.00;99.90;;;;;;5095688;27;20130;-80
2022/09/06 05:45:23;;;;;;;13.40;12.30;;;18.00;99.90;;;;;;5068978;27;20134;-80
2022/09/06 05:47:48;;;;;;;13.35;12.13;;;18.00;99.90;;;;;;5088832;27;20092;-80
2022/09/06 05:50:14;;;;;;;13.63;12.32;;;17.90;99.90;;;;;;5093090;27;20043;-80
2022/09/06 05:52:40;;;;;;;14.10;12.90;;;17.90;99.90;;;;;;5103215;27;20446;-80
2022/09/06 05:55:06;;;;;;;13.63;12.43;;;17.90;99.90;;;;;;5090794;27;20385;-80
2022/09/06 05:57:32;;;;;;;13.43;12.23;;;17.90;99.90;;;;;;5082153;27;20066;-80
2022/09/06 05:59:58;;;;;;;13.15;11.95;;;17.90;99.90;;;;;;5086114;27;20397;-80
2022/09/06 06:02:24;;;;;;;12.70;11.55;;;17.80;99.90;;;;;;5084941;27;20039;-80
2022/09/06 06:04:50;;;;;;;13.48;12.27;;;17.80;99.90;;;;;;5097601;27;20042;-80
2022/09/06 06:07:17;;;;;;;13.50;12.38;;;17.80;99.90;;;;;;5112236;27;20099;-81
2022/09/06 06:09:43;;;;;;;14.00;12.70;;;17.80;99.90;;;;;;5081797;27;20043;-80
2022/09/06 06:12:09;;;;;;;13.80;12.60;;;17.70;99.90;;;;;;5110804;27;20040;-80
2022/09/06 06:14:38;;;;;;;13.65;12.45;;;17.80;99.90;;;;;;5095362;27;20078;-81
2022/09/06 06:17:04;;;;;;;13.65;12.45;;;17.80;99.90;;;;;;5078229;27;20037;-84
2022/09/06 06:19:30;;;;;;;14.48;13.20;;;17.80;99.90;;;;;;5069424;27;20039;-84
2022/09/06 06:21:57;;;;;;;14.13;12.82;;;17.90;99.90;;;;;;5096518;27;20405;-84
2022/09/06 06:24:26;;;;;;;14.93;13.63;;;17.90;99.90;;;;;;5100280;27;20039;-85
2022/09/06 06:26:52;;;;;;;14.97;13.57;;;17.90;99.90;;;;;;5097413;27;20442;-85
2022/09/06 06:29:18;;;;;;;14.10;13.00;;;18.00;99.90;;;;;;5082668;27;20107;-84
2022/09/06 06:31:44;;;;;;;14.98;13.68;;;18.00;99.90;;;;;;5102374;27;20064;-84
2022/09/06 06:34:09;;;;;;;14.68;13.55;;;18.00;99.90;;;;;;5069365;27;20626;-84
2022/09/06 06:36:36;;;;;;;15.32;14.02;;;18.00;99.90;;;;;;5095735;27;20045;-84
2022/09/06 06:39:05;;;;;;;14.82;13.45;;;18.00;99.90;;;;;;5088317;27;20122;-82
2022/09/06 06:41:31;;;;;;;14.65;13.35;;;17.90;99.90;;;;;;5102560;27;20030;-82
2022/09/06 06:44:00;;;;;;;14.45;13.05;;;17.90;99.90;;;;;;5090818;27;20043;-82
2022/09/06 06:46:31;;;;;;;14.93;13.75;;;17.90;99.90;;;;;;5109249;27;20112;-82
2022/09/06 06:48:57;;;;;;;15.98;14.70;;;17.90;99.90;;;;;;5101351;27;20044;-82
2022/09/06 06:51:25;;;;;;;14.57;13.38;;;17.90;99.90;;;;;;5085951;28;20117;-82
2022/09/06 06:53:51;;;;;;;15.32;14.07;;;18.00;99.90;;;;;;5094557;27;20478;-82
2022/09/06 06:56:21;;;;;;;16.00;14.57;;;18.00;99.90;;;;;;5099659;27;20130;-82
2022/09/06 06:58:49;;;;;;;15.38;13.95;;;18.00;99.90;;;;;;5100878;27;20047;-82
2022/09/06 07:01:16;;;;;;;16.35;14.65;;;18.00;99.90;;;;;;5108087;27;20066;-82
2022/09/06 07:03:42;;;;;;;16.10;14.60;;;18.00;99.90;;;;;;5084507;27;20505;-82
2022/09/06 07:06:08;;;;;;;16.65;15.15;;;18.00;99.90;;;;;;5118820;27;20173;-83
2022/09/06 07:08:38;;;;;;;16.58;14.98;;;18.10;99.90;;;;;;5097750;28;20047;-82
2022/09/06 07:11:09;;;;;;;16.00;14.50;;;18.10;99.90;;;;;;5101207;27;20246;-82
2022/09/06 07:13:39;;;;;;;15.93;14.65;;;18.10;99.90;;;;;;5103027;28;20157;-81
2022/09/06 07:16:37;;;;;;;15.23;13.90;;;18.20;99.90;;;;;;5114612;27;20039;-82
2022/09/06 07:19:02;;;;;;;15.13;13.68;;;18.30;99.90;;;;;;5081986;27;20047;-82
2022/09/06 07:21:28;;;;;;;15.55;14.07;;;18.40;99.90;;;;;;5077268;28;20035;-82
2022/09/06 07:23:55;;;;;;;14.65;13.35;;;18.50;99.90;;;;;;5070481;27;20543;-82
2022/09/06 07:26:26;;;;;;;14.20;13.00;;;18.70;99.90;;;;;;5077240;27;20117;-82
2022/09/06 07:28:53;;;;;;;13.63;12.43;;;19.00;99.90;;;;;;5093586;27;20048;-81
2022/09/06 07:31:19;;;;;;;13.88;12.65;;;19.30;99.90;;;;;;5096170;27;20035;-81
2022/09/06 07:33:46;;;;;;;13.73;12.38;;;19.60;99.90;;;;;;5096512;27;20047;-83
2022/09/06 07:36:14;;;;;;;13.43;12.15;;;19.80;99.90;;;;;;5095208;27;20043;-81
2022/09/06 07:38:40;;;;;;;13.02;11.85;;;20.10;99.90;;;;;;5087644;27;20527;-83
2022/09/06 07:41:08;;;;;;;11.90;10.90;;;20.30;99.90;;;;;;5110877;27;20922;-81
2022/09/06 07:43:37;;;;;;;11.55;10.50;;;20.60;99.90;;;;;;5099359;27;20058;-82
2022/09/06 07:46:05;;;;;;;12.18;10.98;;;20.80;99.90;;;;;;5080204;27;20052;-81
2022/09/06 07:48:34;;;;;;;11.23;10.13;;;21.10;99.90;;;;;;5098467;27;20104;-81
2022/09/06 07:51:19;;;;;;;11.73;10.73;;;21.20;99.90;;;;;;5089870;27;20757;-82
2022/09/06 07:53:56;;;;;;;12.05;11.05;;;21.30;99.90;;;;;;5097986;27;20078;-81
2022/09/06 07:56:23;;;;;;;11.35;10.32;;;21.40;99.90;;;;;;5089925;27;20039;-81
2022/09/06 07:58:52;;;;;;;11.10;9.45;;;21.50;99.90;;;;;;5110428;27;20664;-82
2022/09/06 08:01:29;;;;;;;11.23;10.20;;;21.60;99.90;;;;;;5116699;27;20123;-82
2022/09/06 08:03:59;;;;;;;10.23;9.23;;;21.90;99.90;;;;;;5096295;27;20081;-82
2022/09/06 08:06:27;;;;;;;11.43;10.23;;;22.10;99.90;;;;;;5108691;27;20232;-81
2022/09/06 08:08:53;;;;;;;11.65;10.40;;;22.30;99.90;;;;;;5106282;27;20387;-82
2022/09/06 08:11:23;;;;;;;11.48;9.60;;;22.50;99.90;;;;;;5079710;27;20032;-82
2022/09/06 08:13:50;;;;;;;;;;;22.60;99.90;;;;;;5092447;27;20040;-82
2022/09/06 08:16:16;;;;;;;11.25;10.32;;;22.70;99.90;;;;;;5093812;27;19924;-82
2022/09/06 08:18:42;;;;;;;11.77;10.57;;;22.80;99.90;;;;;;5086266;27;20043;-84
2022/09/06 08:21:13;;;;;;;11.45;10.30;;;23.00;99.90;;;;;;5120587;27;20046;-82
2022/09/06 08:23:43;;;;;;;12.18;11.15;;;23.10;99.90;;;;;;5095287;27;20047;-84
2022/09/06 08:26:09;;;;;;;11.38;10.05;;;23.20;99.90;;;;;;5092920;27;20051;-84
2022/09/06 08:28:35;;;;;;;9.95;9.05;;;23.40;99.90;;;;;;5093582;27;20050;-85
2022/09/06 08:31:10;;;;;;;10.98;9.88;;;23.60;99.90;;;;;;5112439;27;20056;-84
2022/09/06 08:33:39;;;;;;;10.52;9.57;;;23.70;99.90;;;;;;5092145;27;20047;-83
2022/09/06 08:36:07;;;;;;;10.05;9.10;;;23.70;99.90;;;;;;5073338;27;20043;-84
2022/09/06 08:38:36;;;;;;;10.50;9.52;;;23.70;99.90;;;;;;5113243;27;20123;-84
2022/09/06 08:41:26;;;;;;;12.30;9.05;;;23.60;99.90;;;;;;5122396;27;20095;-83
2022/09/06 08:43:55;;;;;;;12.55;9.05;;;23.50;99.90;;;;;;5096562;27;20031;-85
2022/09/06 08:46:28;;;;;;;10.30;9.32;;;23.30;99.90;;;;;;5114630;27;20050;-84
2022/09/06 08:48:54;;;;;;;10.80;9.90;;;23.10;99.90;;;;;;5104834;27;20070;-82
2022/09/06 08:51:47;;;;;;;10.98;9.95;;;23.00;99.90;;;;;;5099604;27;20043;-84
2022/09/06 08:54:26;;;;;;;10.90;9.80;;;23.00;99.90;;;;;;5103888;27;20043;-84
2022/09/06 08:57:29;;;;;;;9.68;8.77;;;23.00;99.90;;;;;;5113122;27;20050;-83
2022/09/06 09:00:01;;;;;;;10.30;9.18;;;22.90;99.90;;;;;;5097660;27;20478;-83
2022/09/06 09:02:40;;;;;;;11.52;10.32;;;22.90;99.90;;;;;;5121931;27;20046;-83
2022/09/06 09:05:32;;;;;;;10.73;9.65;;;22.80;99.90;;;;;;5091810;27;20076;-83
2022/09/06 09:08:21;;;;;;;8.90;8.07;;;22.80;99.90;;;;;;5110908;27;20050;-84
2022/09/06 09:11:01;;;;;;;8.23;7.45;;;23.10;99.90;;;;;;5098734;27;20051;-83
2022/09/06 09:13:49;;;;;;;9.95;8.82;;;23.20;99.90;;;;;;5104929;27;20031;-83
2022/09/06 09:16:16;;;;;;;10.13;8.30;;;23.20;99.90;;;;;;5113925;27;20057;-84
2022/09/06 09:18:47;;;;;;;8.68;7.78;;;23.30;99.90;;;;;;5118803;27;20046;-84
2022/09/06 09:21:16;;;;;;;8.65;7.75;;;23.50;99.90;;;;;;5116294;27;20262;-85
2022/09/06 09:23:45;;;;;;;9.93;9.02;;;23.70;99.90;;;;;;5093507;27;20042;-83
2022/09/06 09:26:14;;;;;;;9.65;8.60;;;23.90;99.90;;;;;;5098216;27;20295;-83
2022/09/06 09:29:11;;;;;;;8.10;7.30;;;24.10;99.90;;;;;;5119114;27;20091;-83
2022/09/06 09:31:48;;;;;;;8.13;7.30;;;24.20;99.90;;;;;;5117376;27;20049;-84
2022/09/06 09:34:32;;;;;;;8.20;6.93;;;24.50;99.80;;;;;;5118723;27;20077;-85
2022/09/06 09:37:16;;;;;;;9.23;6.68;;;24.70;99.20;;;;;;5095486;27;20399;-85
2022/09/06 09:39:42;;;;;;;6.47;5.88;;;25.00;98.70;;;;;;5112374;27;20052;-83
2022/09/06 09:42:08;;;;;;;5.85;4.82;;;25.10;97.80;;;;;;5117296;27;20568;-83
2022/09/06 09:44:41;;;;;;;7.00;5.10;;;25.30;96.30;;;;;;5082963;27;20047;-84
2022/09/06 09:47:27;;;;;;;8.98;5.95;;;25.40;95.10;;;;;;5122319;27;20050;-84
2022/09/06 09:49:57;;;;;;;7.53;6.10;;;25.60;94.20;;;;;;5113119;27;20051;-84
2022/09/06 09:52:26;;;;;;;5.43;4.90;;;25.70;94.00;;;;;;5096659;27;20031;-84
2022/09/06 09:55:04;;;;;;;6.03;5.20;;;25.80;93.50;;;;;;5100237;27;20489;-84
2022/09/06 09:57:45;;;;;;;7.72;5.70;;;25.90;93.00;;;;;;5089744;27;20328;-81
2022/09/06 10:00:12;;;;;;;5.72;4.22;;;26.10;92.00;;;;;;5098472;27;20719;-83
2022/09/06 10:02:40;;;;;;;6.60;4.65;;;26.10;91.30;;;;;;5120971;27;20076;-83
2022/09/06 10:05:11;;;;;;;5.72;4.00;;;26.20;89.50;;;;;;5099582;27;20054;-85
2022/09/06 10:07:53;;;;;;;6.07;4.10;;;26.20;88.20;;;;;;5123952;27;20035;-83
2022/09/06 10:10:26;;;;;;;6.30;4.80;;;26.30;88.60;;;;;;5110147;27;20051;-84
2022/09/06 10:13:13;;;;;;;6.55;4.88;;;26.40;85.60;;;;;;5095742;27;20389;-85
2022/09/06 10:15:40;;;;;;;8.00;4.90;;;26.40;85.30;;;;;;5117828;27;20065;-83
2022/09/06 10:18:26;;;;;;;6.20;4.70;;;26.50;86.60;;;;;;5098730;27;20525;-85
2022/09/06 10:21:21;;;;;;;7.63;5.05;;;26.60;85.70;;;;;;5117353;27;20042;-84
2022/09/06 10:24:23;;;;;;;6.53;5.20;;;26.70;84.50;;;;;;5071174;27;21154;-84
2022/09/06 10:26:55;;;;;;;7.65;5.97;;;26.70;86.00;;;;;;5113314;27;20069;-84
2022/09/06 10:29:46;;;;;;;6.68;5.80;;;26.70;85.30;;;;;;5103090;27;20096;-84
2022/09/06 10:32:46;;;;;;;7.38;5.07;;;26.70;82.80;;;;;;5121161;27;20073;-84
2022/09/06 10:35:15;;;;;;;4.68;3.92;;;26.70;84.00;;;;;;5092564;27;20043;-84
2022/09/06 10:38:07;;;;;;;5.68;5.18;;;26.80;84.60;;;;;;5114958;27;20621;-80
2022/09/06 10:40:40;;;;;;;6.22;5.38;;;26.90;85.20;;;;;;5107830;27;20378;-82
2022/09/06 10:43:17;;;;;;;7.57;4.95;;;27.00;83.60;;;;;;5098708;27;20054;-84
2022/09/06 10:45:58;;;;;;;7.03;5.45;;;27.00;83.30;;;;;;5083845;27;20520;-80
2022/09/06 10:48:44;;;;;;;7.53;6.80;;;27.00;83.30;;;;;;5096262;27;20100;-82
2022/09/06 10:51:36;;;;;;;7.72;7.00;;;27.00;83.30;;;;;;5128529;27;20484;-82
2022/09/06 10:54:13;;;;;;;8.70;6.47;;;27.10;83.90;;;;;;5094698;27;20698;-82
2022/09/06 10:57:16;;;;;;;9.48;6.60;;;27.10;84.50;;;;;;5098306;27;20075;-83
2022/09/06 10:59:48;;;;;;;7.25;6.55;;;27.10;83.70;;;;;;5088469;27;20047;-82
2022/09/06 11:02:53;;;;;;;7.70;6.57;;;27.10;84.50;;;;;;5105234;27;20039;-83
2022/09/06 11:05:44;;;;;;;7.85;6.72;;;27.10;83.90;;;;;;5096792;27;20035;-83
2022/09/06 11:08:19;;;;;;;8.10;6.28;;;27.20;82.20;;;;;;5086618;27;20508;-83
2022/09/06 11:10:48;;;;;;;7.28;6.57;;;27.20;83.10;;;;;;5111930;27;20731;-82
2022/09/06 11:13:27;;;;;;;9.63;5.87;;;27.20;82.60;;;;;;5088756;27;20046;-83
2022/09/06 11:16:28;;;;;;;7.57;5.35;;;27.20;83.00;;;;;;5107416;27;20740;-83
2022/09/06 11:19:02;;;;;;;5.15;4.38;;;27.30;81.80;;;;;;5100523;27;20042;-83
2022/09/06 11:21:58;;;;;;;6.30;4.95;;;27.30;80.70;;;;;;5095209;27;20129;-84
2022/09/06 11:24:56;;;;;;;5.15;3.90;;;27.50;80.40;;;;;;5092031;27;20478;-83
2022/09/06 11:27:37;;;;;;;5.65;5.05;;;27.50;77.00;;;;;;5096218;27;20038;-83
2022/09/06 11:30:05;;;;;;;6.30;5.13;;;27.60;77.80;;;;;;5103361;27;20035;-86
2022/09/06 11:32:42;;;;;;;7.18;5.20;;;27.60;77.00;;;;;;5120308;27;20047;-82
2022/09/06 11:35:31;;;;;;;8.25;4.18;;;27.50;77.60;;;;;;5119187;27;20489;-82
2022/09/06 11:38:14;;;;;;;4.68;3.63;;;27.70;78.80;;;;;;5105676;27;20357;-83
2022/09/06 11:40:44;;;;;;;5.32;3.22;;;27.80;75.70;;;;;;5115942;27;21203;-81
2022/09/06 11:43:34;;;;;;;5.28;3.80;;;27.80;75.40;;;;;;5122678;27;20073;-83
2022/09/06 11:46:00;;;;;;;4.35;3.95;;;27.80;74.30;;;;;;5118014;27;20061;-83
2022/09/06 11:48:27;;;;;;;3.75;3.03;;;27.90;73.70;;;;;;5103254;27;20058;-83
2022/09/06 11:50:53;;;;;;;4.88;3.38;;;27.90;73.00;;;;;;5101610;27;20047;-78
2022/09/06 11:53:20;;;;;;;4.95;3.63;;;28.00;72.90;;;;;;5119909;27;20054;-83
2022/09/06 11:55:54;;;;;;;5.40;4.10;;;28.10;72.90;;;;;;5117698;27;20529;-79
2022/09/06 11:58:27;;;;;;;5.68;4.15;;;28.10;73.10;;;;;;5101570;27;20094;-82
2022/09/06 12:01:11;;;;;;;6.63;3.80;;;28.10;72.90;;;;;;5103630;27;20046;-82
2022/09/06 12:03:49;;;;;;;6.28;4.75;;;28.10;72.80;;;;;;5120156;27;20140;-82
2022/09/06 12:06:18;;;;;;;4.75;4.03;;;28.20;72.80;;;;;;5104629;27;20302;-81
2022/09/06 12:08:44;;;;;;;6.90;5.32;;;28.20;71.60;;;;;;5115112;27;20386;-79
2022/09/06 12:11:27;;;;;;;5.30;4.10;;;28.20;71.90;;;;;;5088548;27;20493;-82
2022/09/06 12:14:01;;;;;;;6.45;4.43;;;28.10;71.60;;;;;;5100469;27;20485;-81
2022/09/06 12:17:10;;;;;;;5.30;4.25;;;28.20;72.80;;;;;;5100842;27;20390;-83
2022/09/06 12:19:53;;;;;;;4.55;3.83;;;28.30;71.20;;;;;;5111519;27;20130;-83
2022/09/06 12:22:28;;;;;;;6.22;4.43;;;28.30;71.00;;;;;;5111114;27;20107;-83
2022/09/06 12:24:59;;;;;;;5.60;3.35;;;28.30;71.20;;;;;;5097471;27;20046;-82
2022/09/06 12:27:29;;;;;;;5.53;3.70;;;28.40;71.00;;;;;;5087774;27;20453;-83
2022/09/06 12:30:00;;;;;;;6.35;4.20;;;28.50;70.40;;;;;;5105843;27;20531;-82
2022/09/06 12:32:43;;;;;;;4.85;4.20;;;28.50;69.20;;;;;;5121718;27;20037;-83
2022/09/06 12:35:22;;;;;;;5.45;3.53;;;28.50;69.70;;;;;;5093919;27;20141;-83
2022/09/06 12:37:54;;;;;;;;;;;28.50;69.90;;;;;;5100823;27;20064;-83
2022/09/06 12:40:21;;;;;;;8.50;3.88;;;28.60;68.70;;;;;;5099812;27;19927;-83
2022/09/06 12:42:52;;;;;;;7.30;3.58;;;28.50;69.00;;;;;;5115270;27;20039;-78
2022/09/06 12:45:23;;;;;;;6.60;4.07;;;28.40;68.80;;;;;;5110890;27;20045;-81
2022/09/06 12:47:50;;;;;;;4.97;4.03;;;28.50;69.50;;;;;;5071112;27;20048;-83
2022/09/06 12:50:24;;;;;;;7.68;4.57;;;28.60;70.10;;;;;;5094836;28;20042;-82
2022/09/06 12:53:02;;;;;;;5.05;4.20;;;28.70;69.80;;;;;;5100044;27;20039;-76
2022/09/06 12:55:34;;;;;;;7.13;4.50;;;28.60;69.00;;;;;;5114008;27;20039;-77
2022/09/06 12:58:08;;;;;;;6.00;4.32;;;28.50;69.30;;;;;;5104691;27;20729;-75
2022/09/06 13:00:44;;;;;;;5.00;4.25;;;28.60;69.60;;;;;;5092434;27;20051;-76
2022/09/06 13:03:27;;;;;;;5.22;4.50;;;28.70;70.10;;;;;;5096224;28;20154;-76
2022/09/06 13:05:55;;;;;;;8.00;4.40;;;28.90;70.00;;;;;;5099793;27;20062;-75
2022/09/06 13:08:35;;;;;;;7.60;4.47;;;29.00;68.80;;;;;;5110042;27;20061;-76